createdAt,value
2019-01-31T00:05:15.779Z,-2.01
2019-01-31T00:10:26.025Z,-1.92
2019-01-31T00:15:36.514Z,-2.00
2019-01-31T00:20:51.814Z,-2.05
2019-01-31T00:26:08.254Z,-1.99
2019-01-31T00:31:18.286Z,-2.20
2019-01-31T00:36:36.749Z,-2.55
2019-01-31T00:43:56.910Z,-2.76
2019-01-31T00:49:11.684Z,-2.93
2019-01-31T00:54:33.082Z,-3.08
2019-01-31T00:59:52.076Z,-3.20
2019-01-31T01:07:14.247Z,-3.33
2019-01-31T01:13:03.423Z,-3.42
2019-01-31T01:18:16.098Z,-3.62
2019-01-31T01:23:30.598Z,-3.73
2019-01-31T01:28:51.919Z,-3.77
2019-01-31T01:34:04.286Z,-3.88
2019-01-31T01:39:27.297Z,-3.92
2019-01-31T01:44:38.950Z,-4.25
2019-01-31T01:49:49.358Z,-4.14
2019-01-31T01:55:01.635Z,-4.19
2019-01-31T02:00:20.067Z,-4.20
2019-01-31T02:05:34.469Z,-4.27
2019-01-31T02:10:51.941Z,-4.38
2019-01-31T02:16:08.148Z,-4.57
2019-01-31T02:21:31.165Z,-4.64
2019-01-31T02:26:48.120Z,-4.77
2019-01-31T02:32:07.692Z,-4.90
2019-01-31T02:37:22.586Z,-4.95
2019-01-31T02:42:35.345Z,-4.98
2019-01-31T02:47:49.361Z,-5.03
2019-01-31T02:55:08.649Z,-5.07
2019-01-31T03:00:22.812Z,-5.39
2019-01-31T03:05:40.202Z,-5.64
2019-01-31T03:10:48.134Z,-5.57
2019-01-31T03:18:23.536Z,-5.62
2019-01-31T03:23:35.888Z,-5.72
2019-01-31T03:30:54.211Z,-5.88
2019-01-31T03:36:26.034Z,-5.95
2019-01-31T03:41:52.429Z,-5.94
2019-01-31T03:47:09.785Z,-6.16
2019-01-31T03:54:24.329Z,-6.22
2019-01-31T03:59:34.700Z,-6.26
2019-01-31T04:04:45.811Z,-6.21
2019-01-31T04:09:49.007Z,-6.31
2019-01-31T04:14:52.236Z,-6.34
2019-01-31T04:19:55.449Z,-6.36
2019-01-31T04:24:58.709Z,-6.49
2019-01-31T04:30:01.911Z,-6.65
2019-01-31T04:35:05.269Z,-6.90
2019-01-31T04:40:08.711Z,-6.87
2019-01-31T04:45:11.990Z,-6.95
2019-01-31T04:50:15.155Z,-7.03
2019-01-31T04:55:18.356Z,-6.99
2019-01-31T05:00:21.553Z,-7.00
2019-01-31T05:05:24.770Z,-7.07
2019-01-31T05:10:27.990Z,-7.33
2019-01-31T05:15:31.349Z,-7.33
2019-01-31T05:20:34.574Z,-7.39
2019-01-31T05:25:37.770Z,-7.42
2019-01-31T05:30:40.982Z,-7.46
2019-01-31T05:35:44.186Z,-7.44
2019-01-31T05:40:55.178Z,-7.51
2019-01-31T05:45:50.729Z,-7.58
2019-01-31T05:50:53.911Z,-7.58
2019-01-31T05:55:57.295Z,-7.63
2019-01-31T06:01:00.506Z,-7.77
2019-01-31T06:06:03.741Z,-7.83
2019-01-31T06:11:07.985Z,-7.87
2019-01-31T06:16:10.154Z,-7.91
2019-01-31T06:21:13.374Z,-7.96
2019-01-31T06:26:16.558Z,-7.86
2019-01-31T06:31:19.774Z,-7.94
2019-01-31T06:36:22.970Z,-8.15
2019-01-31T06:41:26.178Z,-8.25
2019-01-31T06:46:29.374Z,-8.31
2019-01-31T06:51:32.585Z,-8.37
2019-01-31T06:56:35.809Z,-8.46
2019-01-31T07:01:39.014Z,-8.38
2019-01-31T07:06:42.398Z,-8.24
2019-01-31T07:11:45.582Z,-8.65
2019-01-31T07:16:48.847Z,-8.76
2019-01-31T07:21:52.059Z,-8.57
2019-01-31T07:26:55.597Z,-8.50
2019-01-31T07:31:58.959Z,-8.23
2019-01-31T07:37:02.343Z,-8.26
2019-01-31T07:42:05.719Z,-7.98
2019-01-31T07:47:09.143Z,-7.82
2019-01-31T07:52:12.608Z,-7.70
2019-01-31T07:57:16.034Z,-7.73
2019-01-31T08:02:19.440Z,-7.54
2019-01-31T08:07:23.045Z,-7.29
2019-01-31T08:12:26.674Z,-7.12
2019-01-31T08:17:35.832Z,-7.13
2019-01-31T08:22:39.309Z,-6.97
2019-01-31T08:27:42.727Z,-6.80
2019-01-31T08:32:46.127Z,-6.73
2019-01-31T08:37:49.555Z,-6.73
2019-01-31T08:42:53.031Z,-6.53
2019-01-31T08:47:56.528Z,-6.39
2019-01-31T08:52:59.953Z,-6.30
2019-01-31T08:58:03.462Z,-6.09
2019-01-31T09:03:06.925Z,-5.98
2019-01-31T09:08:10.438Z,-5.82
2019-01-31T09:13:14.104Z,-5.65
2019-01-31T09:18:17.679Z,-5.58
2019-01-31T09:24:33.807Z,-5.31
2019-01-31T09:29:45.391Z,-4.90
2019-01-31T09:35:05.210Z,-4.35
2019-01-31T09:40:33.880Z,-3.66
2019-01-31T09:47:47.774Z,-3.74
2019-01-31T09:53:00.611Z,-3.25
2019-01-31T09:58:22.396Z,-2.76
2019-01-31T10:03:35.245Z,-2.56
2019-01-31T10:08:51.642Z,-2.43
2019-01-31T10:14:10.130Z,-2.19
2019-01-31T10:20:26.843Z,-2.00
2019-01-31T10:27:45.310Z,-2.11
2019-01-31T10:34:03.796Z,-1.98
2019-01-31T10:41:17.076Z,-1.68
2019-01-31T10:46:37.521Z,-1.13
2019-01-31T10:51:57.094Z,-0.70
2019-01-31T10:57:56.546Z,-0.52
2019-01-31T11:03:17.456Z,-0.50
2019-01-31T11:08:36.716Z,-0.24
2019-01-31T11:14:00.005Z,0.14
2019-01-31T11:19:14.344Z,0.31
2019-01-31T11:25:01.412Z,0.33
2019-01-31T11:30:20.151Z,0.64
2019-01-31T11:35:35.769Z,0.59
2019-01-31T11:41:56.751Z,1.38
2019-01-31T11:47:17.302Z,1.00
2019-01-31T11:52:31.862Z,2.07
2019-01-31T11:59:42.940Z,1.52
2019-01-31T12:04:46.482Z,1.98
2019-01-31T12:09:50.042Z,1.53
2019-01-31T12:14:53.691Z,1.86
2019-01-31T12:19:57.160Z,1.93
2019-01-31T12:25:00.972Z,2.13
2019-01-31T12:30:07.639Z,2.08
2019-01-31T12:35:11.168Z,2.62
2019-01-31T12:40:16.271Z,2.71
2019-01-31T12:45:20.391Z,2.88
2019-01-31T12:50:25.872Z,2.47
2019-01-31T12:55:29.551Z,3.02
2019-01-31T13:00:33.091Z,3.43
2019-01-31T13:05:36.829Z,3.20
2019-01-31T13:10:40.333Z,3.39
2019-01-31T13:15:43.970Z,3.19
2019-01-31T13:20:47.479Z,3.58
2019-01-31T13:25:50.996Z,3.07
2019-01-31T13:30:54.486Z,3.84
2019-01-31T13:35:58.079Z,3.48
2019-01-31T13:41:01.725Z,4.05
2019-01-31T13:46:06.036Z,4.47
2019-01-31T13:51:12.053Z,3.80
2019-01-31T13:56:15.699Z,4.50
2019-01-31T14:01:19.406Z,4.52
2019-01-31T14:06:23.025Z,4.06
2019-01-31T14:11:26.662Z,4.01
2019-01-31T14:16:30.400Z,5.00
2019-01-31T14:21:33.797Z,4.52
2019-01-31T14:26:38.449Z,4.70
2019-01-31T14:31:42.356Z,4.68
2019-01-31T14:36:46.125Z,3.80
2019-01-31T14:41:49.771Z,3.39
2019-01-31T14:46:53.327Z,3.05
2019-01-31T14:51:57.111Z,2.77
2019-01-31T14:57:02.452Z,2.36
2019-01-31T15:02:06.199Z,2.20
2019-01-31T15:07:09.763Z,2.12
2019-01-31T15:12:13.443Z,1.77
2019-01-31T15:17:18.055Z,1.28
2019-01-31T15:22:21.815Z,1.21
2019-01-31T15:27:25.454Z,1.13
2019-01-31T15:32:29.165Z,1.28
2019-01-31T15:37:32.655Z,1.36
2019-01-31T15:42:36.383Z,1.17
2019-01-31T15:47:40.017Z,1.21
2019-01-31T15:52:43.671Z,1.23
2019-01-31T15:57:47.244Z,0.78
2019-01-31T16:02:50.955Z,1.06
2019-01-31T16:07:54.504Z,0.93
2019-01-31T16:12:58.051Z,0.81
2019-01-31T16:18:01.643Z,0.45
2019-01-31T16:23:05.319Z,0.42
2019-01-31T16:28:08.844Z,0.11
2019-01-31T16:33:12.482Z,0.06
2019-01-31T16:38:16.172Z,0.03
2019-01-31T16:43:19.908Z,-0.23
2019-01-31T16:48:23.516Z,-0.51
2019-01-31T16:53:27.226Z,-0.61
2019-01-31T16:58:30.716Z,-0.54
2019-01-31T17:03:34.411Z,-0.52
2019-01-31T17:08:38.009Z,-0.72
2019-01-31T17:13:41.748Z,-0.70
2019-01-31T17:18:46.410Z,-0.71
2019-01-31T17:23:49.877Z,-0.76
2019-01-31T17:28:53.530Z,-0.73
2019-01-31T17:33:57.673Z,-0.83
2019-01-31T17:39:01.204Z,-1.01
2019-01-31T17:44:04.809Z,-1.17
2019-01-31T17:49:08.314Z,-1.38
2019-01-31T17:54:11.931Z,-1.51
2019-01-31T17:59:16.289Z,-1.61
2019-01-31T18:04:19.858Z,-1.91
2019-01-31T18:09:23.523Z,-2.10
2019-01-31T18:14:27.025Z,-2.24
2019-01-31T18:19:30.692Z,-2.31
2019-01-31T18:24:34.229Z,-2.53
2019-01-31T18:29:37.835Z,-2.84
2019-01-31T18:34:41.607Z,-3.03
2019-01-31T18:39:45.180Z,-3.20
2019-01-31T18:44:49.208Z,-3.24
2019-01-31T18:49:52.834Z,-3.34
2019-01-31T18:54:56.566Z,-3.37
2019-01-31T19:00:00.368Z,-3.37
2019-01-31T19:05:04.092Z,-3.36
2019-01-31T19:10:08.021Z,-3.43
2019-01-31T19:15:12.160Z,-3.58
2019-01-31T19:20:19.317Z,-3.61
2019-01-31T19:25:22.936Z,-3.64
2019-01-31T19:30:33.126Z,-3.76
2019-01-31T19:35:37.110Z,-3.87
2019-01-31T19:40:42.942Z,-3.98
2019-01-31T19:45:48.456Z,-4.22
2019-01-31T19:50:51.974Z,-4.40
2019-01-31T19:55:55.567Z,-4.40
2019-01-31T20:00:59.229Z,-4.41
2019-01-31T20:06:02.777Z,-4.59
2019-01-31T20:11:06.439Z,-4.76
2019-01-31T20:16:09.971Z,-4.73
2019-01-31T20:21:13.525Z,-4.86
2019-01-31T20:26:17.760Z,-5.16
2019-01-31T20:31:21.435Z,-5.28
2019-01-31T20:36:24.948Z,-5.30
2019-01-31T20:41:28.525Z,-5.31
2019-01-31T20:46:39.675Z,-5.36
2019-01-31T20:51:36.623Z,-5.35
2019-01-31T20:56:40.204Z,-5.56
2019-01-31T21:01:43.765Z,-5.57
2019-01-31T21:06:47.457Z,-5.71
2019-01-31T21:11:51.228Z,-5.73
2019-01-31T21:16:54.949Z,-5.86
2019-01-31T21:21:58.690Z,-5.86
2019-01-31T21:27:02.381Z,-5.94
2019-01-31T21:32:06.096Z,-5.97
2019-01-31T21:37:09.856Z,-6.07
2019-01-31T21:42:13.687Z,-6.08
2019-01-31T21:47:17.374Z,-6.14
2019-01-31T21:52:20.877Z,-6.17
2019-01-31T21:57:24.818Z,-5.99
2019-01-31T22:02:28.364Z,-5.99
2019-01-31T22:07:31.880Z,-5.94
2019-01-31T22:12:35.454Z,-5.83
2019-01-31T22:17:39.264Z,-5.79
2019-01-31T22:22:42.711Z,-5.70
2019-01-31T22:27:46.254Z,-5.61
2019-01-31T22:32:49.779Z,-5.57
2019-01-31T22:37:53.209Z,-5.52
2019-01-31T22:42:56.778Z,-5.60
2019-01-31T22:48:00.427Z,-5.61
2019-01-31T22:53:03.796Z,-5.59
2019-01-31T22:58:07.548Z,-5.63
2019-01-31T23:03:11.167Z,-5.71
2019-01-31T23:08:14.680Z,-5.57
2019-01-31T23:13:18.248Z,-5.47
2019-01-31T23:18:21.820Z,-5.45
2019-01-31T23:23:25.477Z,-5.32
2019-01-31T23:28:28.849Z,-5.33
2019-01-31T23:33:32.228Z,-5.37
2019-01-31T23:38:35.585Z,-5.31
2019-01-31T23:43:39.030Z,-5.25
2019-01-31T23:48:42.413Z,-5.23
2019-01-31T23:53:45.876Z,-4.99
2019-01-31T23:58:49.254Z,-4.90
